Streator East, Illinois
Current Conditions -  °F | °C
As of 5:15 AM on Saturday 25 Oct 2014 (Local Time) from KPNT Reporting Station
Overcast Overcast  
Wind Chill: 55°   Ceiling: 800
Heat Index: 55°   Visibility: 10mi
Dew Point: 52°   Wind: 6mph
Humidity: 91%   Direction: 250°WSW
Pressure: 29.95"   Gusts: NA
Location:  41.1182°N, 88.8294°W
Report Text: KPNT 251015Z AUTO 25005KT 10SM OVC008 13/11 A2995 RMK AO2 T01260112
Loading
Personal Weather Stations






























Interactive Weather Map
Tropical Storm Tracking
New forecast layout! Learn more

10-Day Weather Forecast

Advertisements
Track Severe Weather on mobile